Aviation Digital Data Service (ADDS)

Output produced by METARs form (0509 UTC 23 October 2014)
found at http://aviationweather.gov/adds/metars/
 
KLCH 230453Z AUTO 04006KT 10SM CLR 17/12 A3010 RMK AO2 SLP199 T01720117